createdAt,value
2018-01-10T00:01:33.296Z,90.80
2018-01-10T00:04:00.814Z,90.80
2018-01-10T00:06:29.060Z,90.70
2018-01-10T00:08:56.571Z,90.70
2018-01-10T00:11:24.050Z,90.70
2018-01-10T00:13:51.547Z,90.80
2018-01-10T00:16:19.824Z,91.00
2018-01-10T00:18:47.334Z,91.00
2018-01-10T00:21:14.857Z,91.00
2018-01-10T00:23:43.153Z,91.00
2018-01-10T00:26:10.619Z,91.00
2018-01-10T00:28:38.080Z,90.90
2018-01-10T00:31:05.596Z,90.90
2018-01-10T00:33:33.062Z,90.80
2018-01-10T00:36:00.611Z,90.80
2018-01-10T00:38:28.835Z,90.70
2018-01-10T00:40:56.327Z,90.70
2018-01-10T00:43:23.839Z,90.80
2018-01-10T00:45:51.298Z,90.60
2018-01-10T00:48:18.824Z,90.90
2018-01-10T00:50:47.085Z,91.10
2018-01-10T00:53:14.588Z,91.10
2018-01-10T00:55:42.063Z,91.10
2018-01-10T00:58:09.562Z,91.00
2018-01-10T01:00:37.040Z,91.10
2018-01-10T01:03:04.559Z,91.20
2018-01-10T01:05:32.021Z,91.40
2018-01-10T01:07:59.534Z,91.40
2018-01-10T01:10:26.990Z,91.50
2018-01-10T01:12:54.480Z,91.20
2018-01-10T01:15:21.946Z,91.20
2018-01-10T01:17:49.518Z,91.40
2018-01-10T01:20:17.035Z,91.40
2018-01-10T01:22:44.524Z,91.20
2018-01-10T01:25:12.047Z,91.00
2018-01-10T01:27:39.578Z,91.10
2018-01-10T01:30:07.851Z,91.10
2018-01-10T01:32:36.110Z,90.90
2018-01-10T01:35:03.610Z,90.90
2018-01-10T01:37:31.089Z,90.90
2018-01-10T01:39:58.608Z,91.00
2018-01-10T01:42:26.074Z,91.10
2018-01-10T01:44:53.560Z,91.20
2018-01-10T01:47:21.061Z,91.30
2018-01-10T01:49:48.597Z,91.30
2018-01-10T01:52:16.082Z,91.10
2018-01-10T01:54:44.319Z,91.20
2018-01-10T01:57:11.810Z,91.20
2018-01-10T01:59:40.060Z,91.00
2018-01-10T02:02:07.572Z,91.00
2018-01-10T02:04:35.035Z,91.00
2018-01-10T02:07:02.575Z,91.20
2018-01-10T02:09:30.818Z,91.30
2018-01-10T02:11:58.338Z,91.30
2018-01-10T02:14:25.808Z,91.10
2018-01-10T02:16:53.315Z,91.20
2018-01-10T02:19:21.570Z,91.30
2018-01-10T02:21:49.057Z,91.30
2018-01-10T02:24:16.576Z,91.40
2018-01-10T02:26:44.042Z,91.40
2018-01-10T02:29:11.533Z,91.60
2018-01-10T02:31:39.057Z,91.60
2018-01-10T02:34:06.561Z,91.60
2018-01-10T02:36:34.034Z,91.60
2018-01-10T02:39:01.519Z,91.60
2018-01-10T02:41:29.004Z,91.50
2018-01-10T02:43:56.646Z,91.60
2018-01-10T02:46:24.114Z,91.60
2018-01-10T02:48:51.598Z,91.60
2018-01-10T02:51:19.112Z,91.60
2018-01-10T02:53:46.617Z,91.00
2018-01-10T02:56:14.912Z,91.70
2018-01-10T02:58:42.371Z,91.70
2018-01-10T03:01:09.865Z,91.60
2018-01-10T03:03:38.107Z,91.50
2018-01-10T03:06:05.638Z,91.50
2018-01-10T03:08:33.872Z,91.40
2018-01-10T03:11:01.364Z,91.40
2018-01-10T03:13:29.600Z,91.30
2018-01-10T03:15:57.111Z,91.30
2018-01-10T03:18:24.691Z,91.20
2018-01-10T03:20:52.166Z,91.30
2018-01-10T03:23:19.675Z,91.40
2018-01-10T03:25:48.350Z,91.50
2018-01-10T03:28:15.810Z,91.50
2018-01-10T03:30:43.309Z,91.60
2018-01-10T03:33:10.812Z,91.60
2018-01-10T03:35:38.282Z,91.60
2018-01-10T03:38:06.549Z,91.10
2018-01-10T03:40:34.010Z,91.30
2018-01-10T03:43:01.503Z,91.30
2018-01-10T03:45:29.002Z,91.30
2018-01-10T03:47:56.710Z,91.30
2018-01-10T03:50:24.204Z,91.30
2018-01-10T03:52:51.668Z,91.20
2018-01-10T03:55:20.127Z,91.20
2018-01-10T03:57:47.607Z,91.30
2018-01-10T04:00:15.099Z,91.40
2018-01-10T04:02:42.563Z,91.30
2018-01-10T04:05:10.860Z,91.40
2018-01-10T04:07:38.437Z,91.40
2018-01-10T04:10:05.964Z,91.40
2018-01-10T04:12:34.213Z,91.50
2018-01-10T04:15:01.673Z,91.50
2018-01-10T04:17:29.189Z,91.40
2018-01-10T04:19:56.673Z,91.50
2018-01-10T04:22:24.168Z,91.60
2018-01-10T04:24:51.665Z,91.60
2018-01-10T04:27:19.160Z,91.60
2018-01-10T04:29:46.637Z,91.60
2018-01-10T04:32:14.168Z,91.60
2018-01-10T04:34:41.629Z,91.70
2018-01-10T04:37:09.140Z,91.60
2018-01-10T04:39:36.626Z,91.60
2018-01-10T04:42:04.132Z,91.60
2018-01-10T04:44:32.380Z,91.70
2018-01-10T04:46:59.922Z,91.60
2018-01-10T04:49:27.416Z,91.60
2018-01-10T04:51:54.947Z,91.60
2018-01-10T04:54:22.420Z,91.60
2018-01-10T04:56:49.877Z,91.60
2018-01-10T04:59:17.394Z,91.60
2018-01-10T05:01:44.887Z,91.60
2018-01-10T05:04:12.380Z,91.60
2018-01-10T05:06:39.965Z,91.60
2018-01-10T05:09:07.472Z,91.60
2018-01-10T05:11:34.988Z,91.60
2018-01-10T05:14:02.510Z,91.60
2018-01-10T05:16:30.796Z,91.60
2018-01-10T05:18:59.121Z,91.50
2018-01-10T05:21:26.576Z,91.50
2018-01-10T05:23:54.060Z,91.50
2018-01-10T05:26:21.564Z,91.50
2018-01-10T05:28:49.043Z,91.50
2018-01-10T05:31:16.582Z,91.50
2018-01-10T05:33:44.062Z,91.40
2018-01-10T05:36:11.568Z,91.40
2018-01-10T05:38:39.832Z,91.40
2018-01-10T05:41:07.644Z,91.40
2018-01-10T05:43:35.251Z,91.30
2018-01-10T05:46:02.968Z,91.60
2018-01-10T05:48:30.533Z,91.60
2018-01-10T05:50:58.044Z,91.70
2018-01-10T05:53:25.595Z,91.70
2018-01-10T05:55:53.090Z,91.70
2018-01-10T05:58:20.636Z,91.70
2018-01-10T06:00:48.358Z,91.80
2018-01-10T06:03:15.890Z,91.80
2018-01-10T06:05:44.298Z,91.70
2018-01-10T06:08:11.935Z,92.10
2018-01-10T06:10:39.433Z,91.60
2018-01-10T06:13:07.110Z,91.60
2018-01-10T06:15:34.552Z,91.60
2018-01-10T06:18:02.016Z,91.60
2018-01-10T06:20:29.701Z,91.50
2018-01-10T06:22:57.932Z,91.40
2018-01-10T06:25:25.454Z,91.40
2018-01-10T06:27:52.923Z,91.40
2018-01-10T06:30:20.452Z,91.30
2018-01-10T06:32:47.968Z,91.40
2018-01-10T06:35:16.246Z,91.50
2018-01-10T06:37:43.711Z,91.50
2018-01-10T06:40:11.246Z,91.50
2018-01-10T06:42:38.722Z,91.60
2018-01-10T06:45:06.229Z,91.60
2018-01-10T06:47:33.696Z,91.70
2018-01-10T06:50:01.167Z,91.70
2018-01-10T06:52:28.688Z,91.70
2018-01-10T06:54:56.923Z,91.60
2018-01-10T06:57:24.424Z,91.60
2018-01-10T06:59:51.948Z,91.40
2018-01-10T07:02:19.449Z,91.40
2018-01-10T07:04:46.918Z,91.40
2018-01-10T07:07:14.408Z,91.40
2018-01-10T07:09:41.870Z,91.40
2018-01-10T07:12:09.376Z,91.40
2018-01-10T07:14:36.855Z,91.50
2018-01-10T07:17:04.390Z,91.50
2018-01-10T07:19:31.865Z,91.60
2018-01-10T07:21:59.337Z,91.50
2018-01-10T07:24:26.834Z,91.60
2018-01-10T07:26:54.310Z,91.50
2018-01-10T07:29:22.585Z,91.80
2018-01-10T07:31:50.817Z,91.80
2018-01-10T07:34:18.328Z,91.80
2018-01-10T07:36:45.804Z,91.80
2018-01-10T07:39:13.312Z,91.80
2018-01-10T07:41:40.776Z,91.80
2018-01-10T07:44:08.284Z,92.00
2018-01-10T07:46:35.756Z,92.10
2018-01-10T07:49:03.315Z,92.30
2018-01-10T07:51:30.852Z,92.50
2018-01-10T07:53:58.614Z,92.60
2018-01-10T07:56:26.116Z,92.70
2018-01-10T07:58:53.675Z,92.80
2018-01-10T08:01:21.144Z,92.80
2018-01-10T08:03:48.606Z,92.90
2018-01-10T08:06:16.890Z,92.60
2018-01-10T08:08:45.114Z,92.90
2018-01-10T08:11:12.623Z,92.80
2018-01-10T08:13:40.878Z,92.90
2018-01-10T08:16:08.397Z,92.80
2018-01-10T08:18:35.920Z,92.90
2018-01-10T08:21:04.211Z,92.90
2018-01-10T08:23:31.670Z,92.90
2018-01-10T08:25:59.171Z,92.90
2018-01-10T08:28:26.654Z,92.80
2018-01-10T08:30:54.152Z,92.70
2018-01-10T08:33:21.633Z,92.60
2018-01-10T08:35:49.140Z,92.60
2018-01-10T08:38:17.373Z,92.60
2018-01-10T08:40:44.894Z,92.50
2018-01-10T08:43:12.381Z,92.70
2018-01-10T08:45:39.894Z,92.90
2018-01-10T08:48:08.125Z,91.20
2018-01-10T08:50:35.616Z,91.10
2018-01-10T08:53:03.933Z,83.60
2018-01-10T08:55:31.411Z,83.50
2018-01-10T08:57:58.950Z,80.20
2018-01-10T09:00:26.465Z,74.90
2018-01-10T09:02:53.941Z,75.30
2018-01-10T09:05:21.447Z,68.40
2018-01-10T09:07:49.724Z,65.10
2018-01-10T09:10:17.228Z,65.00
2018-01-10T09:12:45.456Z,61.50
2018-01-10T09:15:13.159Z,61.40
2018-01-10T09:17:40.617Z,60.70
2018-01-10T09:20:08.882Z,59.90
2018-01-10T09:22:36.342Z,59.90
2018-01-10T09:25:03.847Z,61.20
2018-01-10T09:27:31.336Z,59.00
2018-01-10T09:29:58.827Z,57.70
2018-01-10T09:32:27.092Z,58.10
2018-01-10T09:34:54.557Z,58.10
2018-01-10T09:37:22.809Z,57.30
2018-01-10T09:39:50.328Z,57.20
2018-01-10T09:42:17.810Z,57.10
2018-01-10T09:44:45.281Z,58.10
2018-01-10T09:47:12.771Z,57.90
2018-01-10T09:49:41.066Z,56.60
2018-01-10T09:52:08.569Z,56.50
2018-01-10T09:54:36.057Z,56.10
2018-01-10T09:57:04.291Z,54.50
2018-01-10T09:59:31.812Z,54.50
2018-01-10T10:01:59.465Z,53.40
2018-01-10T10:04:27.696Z,54.50
2018-01-10T10:06:55.207Z,54.50
2018-01-10T10:09:22.736Z,55.10
2018-01-10T10:11:50.204Z,55.80
2018-01-10T10:14:18.474Z,55.80
2018-01-10T10:16:46.727Z,56.40
2018-01-10T10:19:14.224Z,55.80
2018-01-10T10:21:42.475Z,55.70
2018-01-10T10:24:09.984Z,55.60
2018-01-10T10:26:37.466Z,56.20
2018-01-10T10:29:04.967Z,56.20
2018-01-10T10:31:33.201Z,57.50
2018-01-10T10:34:00.736Z,57.40
2018-01-10T10:36:28.196Z,57.10
2018-01-10T10:38:55.737Z,56.90
2018-01-10T10:41:23.210Z,56.70
2018-01-10T10:43:50.763Z,57.20
2018-01-10T10:46:18.224Z,57.30
2018-01-10T10:48:45.756Z,57.20
2018-01-10T10:51:13.974Z,56.90
2018-01-10T10:53:41.476Z,56.70
2018-01-10T10:56:09.721Z,57.00
2018-01-10T10:58:37.241Z,56.40
2018-01-10T11:01:04.708Z,55.50
2018-01-10T11:03:32.179Z,55.40
2018-01-10T11:05:59.674Z,55.80
2018-01-10T11:08:27.138Z,55.40
2018-01-10T11:10:55.403Z,54.80
2018-01-10T11:13:22.910Z,54.80
2018-01-10T11:15:50.438Z,55.00
2018-01-10T11:18:18.716Z,56.20
2018-01-10T11:20:46.968Z,56.50
2018-01-10T11:23:14.462Z,56.40
2018-01-10T11:25:41.944Z,56.00
2018-01-10T11:28:21.188Z,54.30
2018-01-10T11:30:48.658Z,53.70
2018-01-10T11:33:16.153Z,54.00
2018-01-10T11:35:44.424Z,52.70
2018-01-10T11:38:12.733Z,53.30
2018-01-10T11:40:40.235Z,53.20
2018-01-10T11:43:07.683Z,52.70
2018-01-10T11:45:35.180Z,52.60
2018-01-10T11:48:03.422Z,52.70
2018-01-10T11:50:30.919Z,52.70
2018-01-10T11:52:59.167Z,54.30
2018-01-10T11:55:26.676Z,54.20
2018-01-10T11:57:54.176Z,55.00
2018-01-10T12:00:21.648Z,55.80
2018-01-10T12:02:49.103Z,56.00
2018-01-10T12:05:16.595Z,56.20
2018-01-10T12:07:44.100Z,56.70
2018-01-10T12:10:11.598Z,57.40
2018-01-10T12:12:39.845Z,57.50
2018-01-10T12:15:07.345Z,57.50
2018-01-10T12:17:34.803Z,58.00
2018-01-10T12:20:02.313Z,57.80
2018-01-10T12:22:29.786Z,57.80
2018-01-10T12:24:57.310Z,58.80
2018-01-10T12:27:24.793Z,59.80
2018-01-10T12:29:52.278Z,60.40
2018-01-10T12:32:20.537Z,61.70
2018-01-10T12:34:48.027Z,61.70
2018-01-10T12:37:15.499Z,60.00
2018-01-10T12:39:42.984Z,61.60
2018-01-10T12:42:11.220Z,62.20
2018-01-10T12:44:38.717Z,62.20
2018-01-10T12:47:06.177Z,62.20
2018-01-10T12:49:33.684Z,62.60
2018-01-10T12:52:01.904Z,63.00
2018-01-10T12:54:29.422Z,63.00
2018-01-10T12:56:56.879Z,62.90
2018-01-10T12:59:24.376Z,63.40
2018-01-10T13:01:51.835Z,64.20
2018-01-10T13:04:19.316Z,64.20
2018-01-10T13:06:46.801Z,64.00
2018-01-10T13:09:15.080Z,63.90
2018-01-10T13:11:43.325Z,64.00
2018-01-10T13:14:10.805Z,64.00
2018-01-10T13:16:39.100Z,64.80
2018-01-10T13:19:06.575Z,64.70
2018-01-10T13:21:34.073Z,66.30
2018-01-10T13:24:01.537Z,67.50
2018-01-10T13:26:29.030Z,69.00
2018-01-10T13:28:56.489Z,67.50
2018-01-10T13:31:23.994Z,69.00
2018-01-10T13:33:51.474Z,71.80
2018-01-10T13:36:18.969Z,74.30
2018-01-10T13:38:46.442Z,75.00
2018-01-10T13:41:13.938Z,76.10
2018-01-10T13:43:41.403Z,78.20
2018-01-10T13:46:09.023Z,77.10
2018-01-10T13:48:36.485Z,77.90
2018-01-10T13:51:03.944Z,78.90
2018-01-10T13:53:31.442Z,78.70
2018-01-10T13:55:59.691Z,79.90
2018-01-10T13:58:27.236Z,79.80
2018-01-10T14:00:54.696Z,78.60
2018-01-10T14:03:22.977Z,80.00
2018-01-10T14:05:50.442Z,79.90
2018-01-10T14:08:17.938Z,79.80
2018-01-10T14:10:46.196Z,81.00
2018-01-10T14:13:13.690Z,81.00
2018-01-10T14:15:41.151Z,80.70
2018-01-10T14:18:08.631Z,80.60
2018-01-10T14:20:36.087Z,80.50
2018-01-10T14:23:03.597Z,80.70
2018-01-10T14:25:31.833Z,81.20
2018-01-10T14:27:59.335Z,81.10
2018-01-10T14:30:27.564Z,82.80
2018-01-10T14:32:55.073Z,82.70
2018-01-10T14:35:22.560Z,82.30
2018-01-10T14:37:50.071Z,81.60
2018-01-10T14:40:18.323Z,81.70
2018-01-10T14:42:46.794Z,81.70
2018-01-10T14:45:14.270Z,81.70
2018-01-10T14:47:41.881Z,80.80
2018-01-10T14:50:09.353Z,81.90
2018-01-10T14:52:36.806Z,81.00
2018-01-10T14:55:04.342Z,82.70
2018-01-10T14:57:31.798Z,82.00
2018-01-10T14:59:59.319Z,83.30
2018-01-10T15:02:26.792Z,82.50
2018-01-10T15:04:55.078Z,83.70
2018-01-10T15:07:23.343Z,84.20
2018-01-10T15:09:51.618Z,83.60
2018-01-10T15:12:19.880Z,83.20
2018-01-10T15:14:47.374Z,83.10
2018-01-10T15:17:14.845Z,83.60
2018-01-10T15:19:42.406Z,83.80
2018-01-10T15:22:09.875Z,85.20
2018-01-10T15:24:37.360Z,84.40
2018-01-10T15:27:04.847Z,84.80
2018-01-10T15:29:33.115Z,84.00
2018-01-10T15:32:00.587Z,83.90
2018-01-10T15:34:28.848Z,85.20
2018-01-10T15:36:56.413Z,85.00
2018-01-10T15:39:24.678Z,85.40
2018-01-10T15:41:52.142Z,85.30
2018-01-10T15:44:19.640Z,84.80
2018-01-10T15:46:47.111Z,84.50
2018-01-10T15:49:14.619Z,84.00
2018-01-10T15:51:42.075Z,84.00
2018-01-10T15:54:10.360Z,84.60
2018-01-10T15:56:38.593Z,84.00
2018-01-10T15:59:06.112Z,84.00
2018-01-10T16:01:33.583Z,84.10
2018-01-10T16:04:01.264Z,83.70
2018-01-10T16:06:39.024Z,84.10
2018-01-10T16:09:07.398Z,83.80
2018-01-10T16:11:35.652Z,84.10
2018-01-10T16:14:03.134Z,84.00
2018-01-10T16:16:30.631Z,83.90
2018-01-10T16:18:58.104Z,83.00
2018-01-10T16:21:25.695Z,83.30
2018-01-10T16:23:53.917Z,83.60
2018-01-10T16:26:21.405Z,83.50
2018-01-10T16:28:48.899Z,83.40
2018-01-10T16:31:17.165Z,83.50
2018-01-10T16:33:45.411Z,83.40
2018-01-10T16:36:12.895Z,83.20
2018-01-10T16:38:41.133Z,84.70
2018-01-10T16:41:08.627Z,84.00
2018-01-10T16:43:36.878Z,84.00
2018-01-10T16:46:04.369Z,84.00
2018-01-10T16:48:32.603Z,83.70
2018-01-10T16:51:00.088Z,83.60
2018-01-10T16:53:27.575Z,84.10
2018-01-10T16:55:55.093Z,83.40
2018-01-10T16:58:22.579Z,84.20
2018-01-10T17:00:50.828Z,84.20
2018-01-10T17:03:18.282Z,84.20
2018-01-10T17:05:45.786Z,83.50
2018-01-10T17:08:13.258Z,84.00
2018-01-10T17:10:40.752Z,84.00
2018-01-10T17:13:08.229Z,84.10
2018-01-10T17:15:36.480Z,82.80
2018-01-10T17:18:03.948Z,82.80
2018-01-10T17:20:31.440Z,82.80
2018-01-10T17:22:58.976Z,83.20
2018-01-10T17:25:26.436Z,83.00
2018-01-10T17:27:53.944Z,82.80
2018-01-10T17:30:21.496Z,83.80
2018-01-10T17:32:48.970Z,84.00
2018-01-10T17:35:16.422Z,83.80
2018-01-10T17:37:43.923Z,83.40
2018-01-10T17:40:11.390Z,83.70
2018-01-10T17:42:39.649Z,83.90
2018-01-10T17:45:07.155Z,83.80
2018-01-10T17:47:34.668Z,83.70
2018-01-10T17:50:02.126Z,84.40
2018-01-10T17:52:29.627Z,84.90
2018-01-10T17:54:57.101Z,85.20
2018-01-10T17:57:24.611Z,85.00
2018-01-10T17:59:52.839Z,85.70
2018-01-10T18:02:20.327Z,85.70
2018-01-10T18:04:47.786Z,86.40
2018-01-10T18:07:15.317Z,86.20
2018-01-10T18:09:43.561Z,87.50
2018-01-10T18:12:11.091Z,87.50
2018-01-10T18:14:39.342Z,88.10
2018-01-10T18:17:06.836Z,88.10
2018-01-10T18:19:35.155Z,88.50
2018-01-10T18:22:02.654Z,88.50
2018-01-10T18:24:30.904Z,89.80
2018-01-10T18:26:58.403Z,89.00
2018-01-10T18:29:25.856Z,89.20
2018-01-10T18:31:54.106Z,89.50
2018-01-10T18:34:21.583Z,89.50
2018-01-10T18:36:49.844Z,89.20
2018-01-10T18:39:17.312Z,89.20
2018-01-10T18:41:45.575Z,88.80
2018-01-10T18:44:13.049Z,88.80
2018-01-10T18:46:41.293Z,89.20
2018-01-10T18:49:09.557Z,88.80
2018-01-10T18:51:37.043Z,88.80
2018-01-10T18:54:04.556Z,88.80
2018-01-10T18:56:32.030Z,89.00
2018-01-10T18:58:59.541Z,88.40
2018-01-10T19:01:27.788Z,88.40
2018-01-10T19:03:55.295Z,88.40
2018-01-10T19:06:22.764Z,88.20
2018-01-10T19:08:50.259Z,88.40
2018-01-10T19:11:17.734Z,88.50
2018-01-10T19:13:46.062Z,88.70
2018-01-10T19:16:13.545Z,88.70
2018-01-10T19:18:41.121Z,88.70
2018-01-10T19:21:08.686Z,88.60
2018-01-10T19:23:36.342Z,88.60
2018-01-10T19:26:03.846Z,89.30
2018-01-10T19:28:32.304Z,88.50
2018-01-10T19:31:00.552Z,88.90
2018-01-10T19:33:28.057Z,88.90
2018-01-10T19:35:55.607Z,88.90
2018-01-10T19:38:24.436Z,89.20
2018-01-10T19:40:51.940Z,89.20
2018-01-10T19:43:20.296Z,89.20
2018-01-10T19:45:47.776Z,89.20
2018-01-10T19:48:16.088Z,89.40
2018-01-10T19:50:43.581Z,89.40
2018-01-10T19:53:11.066Z,89.30
2018-01-10T19:55:39.371Z,89.30
2018-01-10T19:58:06.882Z,89.30
2018-01-10T20:00:34.363Z,89.00
2018-01-10T20:03:02.846Z,89.00
2018-01-10T20:05:31.074Z,89.00
2018-01-10T20:07:58.556Z,89.00
2018-01-10T20:10:26.072Z,89.00
2018-01-10T20:12:53.575Z,89.10
2018-01-10T20:15:21.109Z,89.10
2018-01-10T20:17:48.584Z,89.70
2018-01-10T20:20:16.109Z,89.20
2018-01-10T20:22:43.620Z,89.40
2018-01-10T20:25:11.142Z,89.20
2018-01-10T20:27:38.625Z,89.20
2018-01-10T20:30:06.119Z,89.10
2018-01-10T20:32:33.601Z,88.80
2018-01-10T20:35:01.143Z,88.90
2018-01-10T20:37:28.621Z,88.90
2018-01-10T20:39:56.138Z,89.20
2018-01-10T20:42:24.397Z,89.10
2018-01-10T20:44:52.681Z,89.40
2018-01-10T20:47:20.950Z,88.80
2018-01-10T20:49:48.456Z,88.80
2018-01-10T20:52:15.984Z,88.70
2018-01-10T20:54:44.269Z,88.70
2018-01-10T20:57:11.732Z,88.60
2018-01-10T20:59:39.268Z,88.80
2018-01-10T21:02:06.875Z,88.80
2018-01-10T21:04:34.382Z,88.30
2018-01-10T21:07:01.872Z,88.40
2018-01-10T21:09:29.409Z,88.30
2018-01-10T21:11:57.636Z,88.50
2018-01-10T21:14:25.156Z,88.50
2018-01-10T21:16:52.645Z,87.60
2018-01-10T21:19:20.129Z,87.50
2018-01-10T21:21:47.738Z,87.70
2018-01-10T21:24:15.234Z,88.30
2018-01-10T21:26:42.791Z,88.50
2018-01-10T21:29:10.279Z,88.80
2018-01-10T21:31:37.780Z,88.90
2018-01-10T21:34:05.278Z,89.20
2018-01-10T21:36:32.777Z,89.20
2018-01-10T21:39:00.296Z,90.10
2018-01-10T21:41:29.309Z,90.20
2018-01-10T21:43:57.559Z,90.30
2018-01-10T21:46:25.082Z,90.30
2018-01-10T21:48:52.586Z,90.60
2018-01-10T21:51:20.105Z,91.20
2018-01-10T21:53:47.612Z,91.00
2018-01-10T21:56:15.113Z,91.00
2018-01-10T21:58:42.582Z,90.90
2018-01-10T22:01:10.438Z,90.80
2018-01-10T22:03:37.937Z,90.90
2018-01-10T22:06:05.489Z,90.90
2018-01-10T22:08:32.978Z,90.80
2018-01-10T22:11:01.256Z,90.90
2018-01-10T22:13:29.518Z,91.20
2018-01-10T22:15:57.791Z,91.00
2018-01-10T22:18:25.274Z,91.20
2018-01-10T22:20:52.806Z,91.30
2018-01-10T22:23:20.353Z,91.50
2018-01-10T22:25:48.688Z,91.50
2018-01-10T22:28:16.186Z,91.50
2018-01-10T22:30:43.704Z,91.70
2018-01-10T22:33:11.187Z,91.90
2018-01-10T22:35:38.699Z,92.00
2018-01-10T22:38:06.956Z,92.20
2018-01-10T22:40:34.542Z,92.20
2018-01-10T22:43:02.052Z,92.60
2018-01-10T22:45:29.554Z,92.50
2018-01-10T22:47:57.872Z,92.40
2018-01-10T22:50:25.867Z,92.30
2018-01-10T22:52:53.340Z,92.30
2018-01-10T22:55:21.590Z,92.40
2018-01-10T22:57:49.108Z,92.30
2018-01-10T23:00:16.595Z,92.50
2018-01-10T23:02:44.092Z,92.50
2018-01-10T23:05:12.428Z,92.40
2018-01-10T23:07:39.914Z,92.40
2018-01-10T23:10:07.458Z,92.40
2018-01-10T23:12:34.960Z,92.40
2018-01-10T23:15:03.200Z,92.30
2018-01-10T23:17:30.694Z,92.30
2018-01-10T23:19:58.970Z,92.40
2018-01-10T23:22:28.182Z,92.40
2018-01-10T23:24:55.666Z,92.40
2018-01-10T23:27:23.154Z,92.40
2018-01-10T23:29:50.660Z,92.50
2018-01-10T23:32:18.163Z,92.50
2018-01-10T23:34:45.624Z,92.50
2018-01-10T23:37:13.236Z,92.60
2018-01-10T23:39:40.709Z,92.60
2018-01-10T23:42:08.206Z,92.70
2018-01-10T23:44:35.678Z,92.80
2018-01-10T23:47:03.987Z,92.80
2018-01-10T23:49:31.448Z,92.80
2018-01-10T23:51:58.978Z,92.90
2018-01-10T23:54:27.244Z,93.10
2018-01-10T23:56:55.462Z,93.10
2018-01-10T23:59:23.010Z,93.00
